Time;durP1;ratioP1;P1;durP2;ratioP2;P2;SDS_P1;SDS_P2;PMS_P1;PMS_P2;Temp;Humidity;BMP_temperature;BMP_pressure;BME280_temperature;BME280_humidity;BME280_pressure;Samples;Min_cycle;Max_cycle;Signal;HPM_P1;HPM_P2
2023/11/28 00:02:01;;;;;;;;;;;18.30;49.70;;;;;;1542328;76;1922;-59
2023/11/28 00:04:03;;;;;;;;;;;18.30;49.70;;;;;;1547831;74;1537;-59
2023/11/28 00:06:05;;;;;;;;;;;18.30;49.70;;;;;;1541355;76;684;-59
2023/11/28 00:08:07;;;;;;;;;;;18.30;49.70;;;;;;1560669;75;745;-60
2023/11/28 00:10:09;;;;;;;;;;;18.30;49.70;;;;;;1542346;76;722;-61
2023/11/28 00:12:11;;;;;;;;;;;18.30;49.70;;;;;;1549869;75;1120;-60
2023/11/28 00:14:13;;;;;;;;;;;18.30;49.70;;;;;;1557152;75;725;-59
2023/11/28 00:16:14;;;;;;;;;;;18.20;49.70;;;;;;1556544;75;710;-61
2023/11/28 00:18:17;;;;;;;;;;;18.20;49.70;;;;;;1563363;75;1485;-61
2023/11/28 00:20:19;;;;;;;;;;;18.30;49.70;;;;;;1565486;75;1898;-62
2023/11/28 00:22:21;;;;;;;;;;;18.20;49.70;;;;;;1538224;76;1159;-62
2023/11/28 00:24:23;;;;;;;;;;;18.20;49.70;;;;;;1565532;75;703;-61
2023/11/28 00:26:25;;;;;;;;;;;18.20;49.70;;;;;;1559345;75;730;-62
2023/11/28 00:28:27;;;;;;;;;;;18.30;49.70;;;;;;1563818;75;740;-63
2023/11/28 00:30:29;;;;;;;;;;;18.30;49.70;;;;;;1559353;75;773;-63
2023/11/28 00:32:31;;;;;;;;;;;18.20;49.60;;;;;;1556768;75;1313;-62
2023/11/28 00:34:33;;;;;;;;;;;18.20;49.70;;;;;;1556709;75;807;-63
2023/11/28 00:36:35;;;;;;;;;;;18.30;49.70;;;;;;1549183;75;744;-62
2023/11/28 00:38:37;;;;;;;;;;;18.20;49.70;;;;;;1541313;76;780;-61
2023/11/28 00:40:40;;;;;;;;;;;18.30;49.70;;;;;;1556425;75;1922;-61
2023/11/28 00:42:42;;;;;;;;;;;18.30;49.70;;;;;;1551856;75;1765;-62
2023/11/28 00:44:44;;;;;;;;;;;18.20;49.70;;;;;;1532434;76;780;-61
2023/11/28 00:46:46;;;;;;;;;;;18.20;49.70;;;;;;1553491;75;1560;-60
2023/11/28 00:48:48;;;;;;;;;;;18.20;49.70;;;;;;1556609;75;709;-60
2023/11/28 00:50:50;;;;;;;;;;;18.20;49.60;;;;;;1554134;75;724;-62
2023/11/28 00:52:52;;;;;;;;;;;18.20;49.70;;;;;;1556364;74;1146;-62
2023/11/28 00:54:54;;;;;;;;;;;18.20;49.70;;;;;;1547826;75;754;-61
2023/11/28 00:56:56;;;;;;;;;;;18.20;49.60;;;;;;1555179;75;774;-61
2023/11/28 00:58:58;;;;;;;;;;;18.30;49.70;;;;;;1534921;76;903;-61
2023/11/28 01:01:00;;;;;;;;;;;18.20;49.70;;;;;;1546175;75;1931;-61
2023/11/28 01:03:03;;;;;;;;;;;18.20;49.60;;;;;;1548312;75;1125;-61
2023/11/28 01:05:05;;;;;;;;;;;18.20;49.60;;;;;;1546670;75;742;-62
2023/11/28 01:07:07;;;;;;;;;;;18.20;49.60;;;;;;1556747;75;676;-62
2023/11/28 01:09:09;;;;;;;;;;;18.20;49.60;;;;;;1540209;76;711;-62
2023/11/28 01:11:11;;;;;;;;;;;18.20;49.60;;;;;;1553960;75;734;-61
2023/11/28 01:13:12;;;;;;;;;;;18.20;49.60;;;;;;1556984;74;1135;-61
2023/11/28 01:15:14;;;;;;;;;;;18.20;49.60;;;;;;1549949;75;1546;-60
2023/11/28 01:17:16;;;;;;;;;;;18.20;49.60;;;;;;1537382;76;724;-61
2023/11/28 01:19:18;;;;;;;;;;;18.20;49.60;;;;;;1549999;75;785;-61
2023/11/28 01:21:20;;;;;;;;;;;18.20;49.60;;;;;;1556345;75;1925;-62
2023/11/28 01:23:22;;;;;;;;;;;18.20;49.60;;;;;;1535193;76;1146;-61
2023/11/28 01:25:24;;;;;;;;;;;18.20;49.60;;;;;;1560934;75;728;-61
2023/11/28 01:27:25;;;;;;;;;;;18.20;49.60;;;;;;1550756;75;748;-61
2023/11/28 01:29:27;;;;;;;;;;;18.20;49.60;;;;;;1543333;76;1584;-62
2023/11/28 01:31:30;;;;;;;;;;;18.20;49.50;;;;;;1557400;75;732;-62
2023/11/28 01:33:32;;;;;;;;;;;18.20;49.50;;;;;;1551624;75;1139;-63
2023/11/28 01:35:34;;;;;;;;;;;18.20;49.60;;;;;;1534953;76;752;-62
2023/11/28 01:37:36;;;;;;;;;;;18.20;49.50;;;;;;1548017;75;792;-62
2023/11/28 01:39:38;;;;;;;;;;;18.20;49.50;;;;;;1549055;75;682;-61
2023/11/28 01:41:41;;;;;;;;;;;18.20;49.60;;;;;;1540301;76;1953;-61
2023/11/28 01:43:43;;;;;;;;;;;18.20;49.50;;;;;;1552200;75;1541;-62
2023/11/28 01:45:45;;;;;;;;;;;18.20;49.50;;;;;;1559317;75;626;-61
2023/11/28 01:47:47;;;;;;;;;;;18.20;49.50;;;;;;1551924;75;583;-61
2023/11/28 01:49:49;;;;;;;;;;;18.20;49.50;;;;;;1527506;76;909;-61
2023/11/28 01:51:51;;;;;;;;;;;18.20;49.50;;;;;;1559145;75;766;-61
2023/11/28 01:53:56;;;;;;;;;;;18.20;49.50;;;;;;1534229;76;1125;-62
2023/11/28 01:55:56;;;;;;;;;;;18.20;49.60;;;;;;1568115;75;1677;-62
2023/11/28 01:57:58;;;;;;;;;;;18.30;49.70;;;;;;1567472;75;1650;-61
2023/11/28 02:00:00;;;;;;;;;;;18.20;49.60;;;;;;1561061;75;661;-61
2023/11/28 02:02:03;;;;;;;;;;;18.20;49.60;;;;;;1536624;76;1910;-61
2023/11/28 02:04:05;;;;;;;;;;;18.20;49.60;;;;;;1548784;75;1177;-61
2023/11/28 02:06:07;;;;;;;;;;;18.20;49.60;;;;;;1557320;75;756;-61
2023/11/28 02:08:10;;;;;;;;;;;18.20;49.60;;;;;;1532285;76;821;-62
2023/11/28 02:10:11;;;;;;;;;;;18.20;49.60;;;;;;1550178;75;738;-61
2023/11/28 02:12:13;;;;;;;;;;;18.20;49.60;;;;;;1554310;75;1225;-62
2023/11/28 02:14:15;;;;;;;;;;;18.20;49.60;;;;;;1555957;75;771;-61
2023/11/28 02:16:17;;;;;;;;;;;18.20;49.60;;;;;;1561309;75;777;-61
2023/11/28 02:18:19;;;;;;;;;;;18.30;49.60;;;;;;1536819;76;792;-61
2023/11/28 02:20:21;;;;;;;;;;;18.20;49.60;;;;;;1559413;75;644;-61
2023/11/28 02:22:23;;;;;;;;;;;18.20;49.60;;;;;;1557367;74;1935;-61
2023/11/28 02:24:25;;;;;;;;;;;18.20;49.60;;;;;;1558778;75;752;-61
2023/11/28 02:26:27;;;;;;;;;;;18.30;49.70;;;;;;1558157;75;646;-61
2023/11/28 02:28:29;;;;;;;;;;;18.30;49.60;;;;;;1545153;75;753;-61
2023/11/28 02:30:31;;;;;;;;;;;18.30;49.60;;;;;;1527531;76;778;-62
2023/11/28 02:32:33;;;;;;;;;;;18.30;49.70;;;;;;1551695;75;1140;-61
2023/11/28 02:34:34;;;;;;;;;;;18.30;49.60;;;;;;1556240;75;821;-63
2023/11/28 02:36:36;;;;;;;;;;;18.30;49.60;;;;;;1553702;75;798;-63
2023/11/28 02:38:38;;;;;;;;;;;18.20;49.50;;;;;;1557332;75;1342;-61
2023/11/28 02:40:40;;;;;;;;;;;18.30;49.70;;;;;;1546587;75;722;-61
2023/11/28 02:42:42;;;;;;;;;;;18.20;49.60;;;;;;1559226;74;1925;-61
2023/11/28 02:44:44;;;;;;;;;;;18.30;49.70;;;;;;1541808;76;686;-62
2023/11/28 02:46:46;;;;;;;;;;;18.30;49.70;;;;;;1554630;75;782;-61
2023/11/28 02:48:48;;;;;;;;;;;18.20;49.60;;;;;;1555555;75;798;-61
2023/11/28 02:50:49;;;;;;;;;;;18.20;49.60;;;;;;1554421;75;818;-61
2023/11/28 02:52:51;;;;;;;;;;;18.30;49.70;;;;;;1534543;75;1555;-61
2023/11/28 02:54:53;;;;;;;;;;;18.30;49.70;;;;;;1556507;75;876;-61
2023/11/28 02:56:55;;;;;;;;;;;18.30;49.60;;;;;;1554195;75;728;-63
2023/11/28 02:58:57;;;;;;;;;;;18.20;49.50;;;;;;1555608;75;759;-62
2023/11/28 03:00:59;;;;;;;;;;;18.30;49.60;;;;;;1554567;75;866;-62
2023/11/28 03:03:01;;;;;;;;;;;18.20;49.50;;;;;;1555732;74;1938;-62
2023/11/28 03:05:03;;;;;;;;;;;18.30;49.60;;;;;;1549783;75;691;-61
2023/11/28 03:07:05;;;;;;;;;;;18.30;49.60;;;;;;1557513;75;1571;-62
2023/11/28 03:09:07;;;;;;;;;;;18.20;49.60;;;;;;1559390;75;709;-61
2023/11/28 03:11:09;;;;;;;;;;;18.30;49.60;;;;;;1558839;75;685;-61
2023/11/28 03:13:11;;;;;;;;;;;18.20;49.50;;;;;;1531194;76;1133;-63
2023/11/28 03:15:13;;;;;;;;;;;18.20;49.50;;;;;;1553298;75;768;-62
2023/11/28 03:17:15;;;;;;;;;;;18.30;49.60;;;;;;1534739;76;765;-59
2023/11/28 03:19:16;;;;;;;;;;;18.30;49.60;;;;;;1552891;75;732;-60
2023/11/28 03:21:18;;;;;;;;;;;18.20;49.50;;;;;;1559308;75;1938;-58
2023/11/28 03:23:20;;;;;;;;;;;18.30;49.60;;;;;;1547650;75;1154;-59
2023/11/28 03:25:22;;;;;;;;;;;18.30;49.60;;;;;;1535555;76;749;-59
2023/11/28 03:27:24;;;;;;;;;;;18.30;49.60;;;;;;1568378;75;764;-61
2023/11/28 03:29:26;;;;;;;;;;;18.30;49.60;;;;;;1569490;75;784;-61
2023/11/28 03:31:28;;;;;;;;;;;18.30;49.60;;;;;;1556873;75;852;-63
2023/11/28 03:33:29;;;;;;;;;;;18.20;49.50;;;;;;1571092;73;1111;-62
2023/11/28 03:35:32;;;;;;;;;;;18.30;49.60;;;;;;1573484;75;1371;-61
2023/11/28 03:37:34;;;;;;;;;;;18.30;49.60;;;;;;1574712;75;764;-61
2023/11/28 03:39:35;;;;;;;;;;;18.20;49.50;;;;;;1536113;76;745;-63
2023/11/28 03:41:37;;;;;;;;;;;18.30;49.60;;;;;;1563394;75;1943;-62
2023/11/28 03:43:39;;;;;;;;;;;18.20;49.50;;;;;;1555603;75;1156;-61
2023/11/28 03:45:41;;;;;;;;;;;18.30;49.50;;;;;;1555398;75;735;-61
2023/11/28 03:47:43;;;;;;;;;;;18.20;49.40;;;;;;1551335;76;736;-61
2023/11/28 03:49:45;;;;;;;;;;;18.20;49.40;;;;;;1555310;75;1705;-59
2023/11/28 03:51:47;;;;;;;;;;;18.20;49.40;;;;;;1552004;75;704;-59
2023/11/28 03:53:49;;;;;;;;;;;18.20;49.40;;;;;;1547924;75;1139;-61
2023/11/28 03:55:50;;;;;;;;;;;18.20;49.30;;;;;;1549496;75;681;-60
2023/11/28 03:57:52;;;;;;;;;;;18.30;49.40;;;;;;1558375;75;745;-57
2023/11/28 03:59:54;;;;;;;;;;;18.20;49.20;;;;;;1554000;75;793;-59
2023/11/28 04:01:56;;;;;;;;;;;18.20;49.30;;;;;;1552144;75;1948;-59
2023/11/28 04:03:58;;;;;;;;;;;18.20;49.20;;;;;;1531602;76;1271;-59
2023/11/28 04:06:00;;;;;;;;;;;18.20;49.20;;;;;;1556352;75;735;-60
2023/11/28 04:08:03;;;;;;;;;;;18.20;49.20;;;;;;1547723;76;682;-60
2023/11/28 04:10:05;;;;;;;;;;;18.20;49.20;;;;;;1558174;75;715;-60
2023/11/28 04:12:07;;;;;;;;;;;18.20;49.20;;;;;;1547891;74;1130;-60
2023/11/28 04:14:09;;;;;;;;;;;18.30;49.30;;;;;;1558627;75;685;-60
2023/11/28 04:16:12;;;;;;;;;;;18.20;49.20;;;;;;1551841;75;716;-60
2023/11/28 04:18:15;;;;;;;;;;;18.20;49.20;;;;;;1558534;75;1679;-59
2023/11/28 04:20:17;;;;;;;;;;;18.30;49.30;;;;;;1562942;75;1009;-60
2023/11/28 04:22:19;;;;;;;;;;;18.30;49.30;;;;;;1555864;75;1925;-60
2023/11/28 04:24:21;;;;;;;;;;;18.30;49.20;;;;;;1554552;75;678;-58
2023/11/28 04:26:23;;;;;;;;;;;18.20;49.20;;;;;;1555516;75;655;-59
2023/11/28 04:28:25;;;;;;;;;;;18.20;49.20;;;;;;1535236;76;663;-59
2023/11/28 04:30:27;;;;;;;;;;;18.20;49.20;;;;;;1556011;75;710;-59
2023/11/28 04:32:29;;;;;;;;;;;18.20;49.20;;;;;;1549579;74;1467;-59
2023/11/28 04:34:30;;;;;;;;;;;18.30;49.30;;;;;;1564929;75;748;-59
2023/11/28 04:36:32;;;;;;;;;;;18.20;49.20;;;;;;1530703;76;775;-59
2023/11/28 04:38:35;;;;;;;;;;;18.20;49.20;;;;;;1559085;75;753;-59
2023/11/28 04:40:37;;;;;;;;;;;18.20;49.20;;;;;;1537758;76;706;-59
2023/11/28 04:42:39;;;;;;;;;;;18.20;49.20;;;;;;1548116;75;1927;-60
2023/11/28 04:44:41;;;;;;;;;;;18.30;49.30;;;;;;1554609;75;746;-60
2023/11/28 04:46:43;;;;;;;;;;;18.30;49.30;;;;;;1546340;75;1485;-61
2023/11/28 04:48:45;;;;;;;;;;;18.20;49.20;;;;;;1539189;76;707;-61
2023/11/28 04:50:47;;;;;;;;;;;18.20;49.20;;;;;;1559285;75;735;-61
2023/11/28 04:52:49;;;;;;;;;;;18.30;49.40;;;;;;1556239;75;1145;-62
2023/11/28 04:54:51;;;;;;;;;;;18.30;49.40;;;;;;1560970;75;673;-64
2023/11/28 04:56:53;;;;;;;;;;;18.20;49.20;;;;;;1531482;76;779;-61
2023/11/28 04:58:54;;;;;;;;;;;18.20;49.30;;;;;;1551600;75;646;-61
2023/11/28 05:00:56;;;;;;;;;;;18.20;49.30;;;;;;1555064;75;1553;-61
2023/11/28 05:02:58;;;;;;;;;;;18.20;49.30;;;;;;1550219;75;1944;-61
2023/11/28 05:05:00;;;;;;;;;;;18.20;49.30;;;;;;1557033;75;747;-61
2023/11/28 05:07:03;;;;;;;;;;;18.20;49.30;;;;;;1540297;76;739;-62
2023/11/28 05:09:06;;;;;;;;;;;18.10;49.30;;;;;;1550267;75;702;-61
2023/11/28 05:11:08;;;;;;;;;;;18.20;49.30;;;;;;1555919;75;803;-62
2023/11/28 05:13:10;;;;;;;;;;;18.20;49.30;;;;;;1556004;74;1115;-62
2023/11/28 05:15:12;;;;;;;;;;;18.20;49.30;;;;;;1558816;75;1250;-60
2023/11/28 05:17:14;;;;;;;;;;;18.20;49.30;;;;;;1531728;76;753;-61
2023/11/28 05:19:16;;;;;;;;;;;18.10;49.30;;;;;;1558322;75;718;-61
2023/11/28 05:21:18;;;;;;;;;;;18.20;49.30;;;;;;1566687;75;796;-62
2023/11/28 05:23:20;;;;;;;;;;;18.30;49.40;;;;;;1556490;74;1924;-62
2023/11/28 05:25:22;;;;;;;;;;;18.20;49.30;;;;;;1551743;75;726;-61
2023/11/28 05:27:24;;;;;;;;;;;18.20;49.30;;;;;;1542925;76;1483;-62
2023/11/28 05:29:26;;;;;;;;;;;18.10;49.30;;;;;;1538055;76;778;-61
2023/11/28 05:31:28;;;;;;;;;;;18.20;49.30;;;;;;1530230;76;726;-61
2023/11/28 05:33:30;;;;;;;;;;;18.20;49.30;;;;;;1532388;76;1125;-62
2023/11/28 05:35:33;;;;;;;;;;;18.20;49.40;;;;;;1536088;76;716;-62
2023/11/28 05:37:35;;;;;;;;;;;18.10;49.40;;;;;;1534999;76;666;-60
2023/11/28 05:39:37;;;;;;;;;;;18.20;49.40;;;;;;1534196;76;715;-60
2023/11/28 05:41:39;;;;;;;;;;;18.10;49.40;;;;;;1530896;76;1558;-61
2023/11/28 05:43:40;;;;;;;;;;;18.20;49.40;;;;;;1532901;75;1955;-62
2023/11/28 05:45:42;;;;;;;;;;;18.20;49.40;;;;;;1533364;76;695;-61
2023/11/28 05:47:44;;;;;;;;;;;18.20;49.40;;;;;;1533047;76;600;-61
2023/11/28 05:49:46;;;;;;;;;;;18.20;49.40;;;;;;1534771;76;775;-62
2023/11/28 05:51:48;;;;;;;;;;;18.20;49.40;;;;;;1533932;76;764;-61
2023/11/28 05:53:50;;;;;;;;;;;18.10;49.40;;;;;;1530209;76;1132;-60
2023/11/28 05:55:52;;;;;;;;;;;18.10;49.40;;;;;;1533034;76;1504;-60
2023/11/28 05:57:54;;;;;;;;;;;18.20;49.40;;;;;;1533309;76;792;-60
2023/11/28 05:59:56;;;;;;;;;;;18.20;49.30;;;;;;1521750;76;675;-59
2023/11/28 06:01:59;;;;;;;;;;;18.20;49.30;;;;;;1534328;76;761;-59
2023/11/28 06:04:01;;;;;;;;;;;18.20;49.30;;;;;;1531384;76;1916;-59
2023/11/28 06:06:03;;;;;;;;;;;18.20;49.40;;;;;;1532046;76;684;-59
2023/11/28 06:08:05;;;;;;;;;;;18.10;49.40;;;;;;1533375;76;730;-60
2023/11/28 06:10:10;;;;;;;;;;;18.20;49.40;;;;;;1534555;76;1337;-59
2023/11/28 06:12:11;;;;;;;;;;;18.20;49.40;;;;;;1533820;76;1161;-60
2023/11/28 06:14:13;;;;;;;;;;;18.20;49.30;;;;;;1533663;76;778;-60
2023/11/28 06:16:15;;;;;;;;;;;18.10;49.40;;;;;;1569555;75;791;-59
2023/11/28 06:18:17;;;;;;;;;;;18.20;49.30;;;;;;1571660;75;746;-59
2023/11/28 06:20:20;;;;;;;;;;;18.20;49.30;;;;;;1575382;75;720;-59
2023/11/28 06:22:22;;;;;;;;;;;18.20;49.40;;;;;;1532575;75;1163;-60
2023/11/28 06:24:24;;;;;;;;;;;18.20;49.40;;;;;;1556344;75;1531;-59
2023/11/28 06:26:26;;;;;;;;;;;18.20;49.30;;;;;;1541066;76;716;-59
2023/11/28 06:28:28;;;;;;;;;;;18.20;49.40;;;;;;1548881;75;836;-59
2023/11/28 06:30:30;;;;;;;;;;;18.20;49.40;;;;;;1527227;76;694;-60
2023/11/28 06:32:31;;;;;;;;;;;18.20;49.30;;;;;;1552709;75;1147;-59
2023/11/28 06:34:34;;;;;;;;;;;18.20;49.40;;;;;;1562632;75;733;-59
2023/11/28 06:36:36;;;;;;;;;;;18.10;49.40;;;;;;1558082;75;786;-62
2023/11/28 06:38:38;;;;;;;;;;;18.20;49.40;;;;;;1541312;76;1497;-61
2023/11/28 06:40:40;;;;;;;;;;;18.20;49.40;;;;;;1556875;75;707;-62
2023/11/28 06:42:43;;;;;;;;;;;18.10;49.40;;;;;;1553092;75;1939;-62
2023/11/28 06:44:45;;;;;;;;;;;18.20;49.40;;;;;;1555667;75;806;-62
2023/11/28 06:46:47;;;;;;;;;;;18.20;49.40;;;;;;1564096;75;852;-61
2023/11/28 06:48:49;;;;;;;;;;;18.20;49.40;;;;;;1542038;76;689;-61
2023/11/28 06:50:51;;;;;;;;;;;18.20;49.40;;;;;;1557290;75;769;-61
2023/11/28 06:52:53;;;;;;;;;;;18.20;49.40;;;;;;1560305;74;1311;-61
2023/11/28 06:54:55;;;;;;;;;;;18.20;49.40;;;;;;1563423;75;796;-61
2023/11/28 06:56:57;;;;;;;;;;;18.20;49.40;;;;;;1530903;76;752;-62
2023/11/28 06:58:59;;;;;;;;;;;18.20;49.40;;;;;;1566720;75;720;-62
2023/11/28 07:01:01;;;;;;;;;;;18.10;49.40;;;;;;1562525;75;679;-61
2023/11/28 07:03:03;;;;;;;;;;;18.20;49.40;;;;;;1555902;74;1947;-61
2023/11/28 07:05:07;;;;;;;;;;;18.20;49.40;;;;;;1550761;75;741;-63
2023/11/28 07:07:09;;;;;;;;;;;18.20;49.40;;;;;;1552966;75;1531;-61
2023/11/28 07:09:11;;;;;;;;;;;18.20;49.40;;;;;;1539523;76;736;-61
2023/11/28 07:11:17;;;;;;;;;;;18.20;49.40;;;;;;1552553;75;693;-63
2023/11/28 07:13:19;;;;;;;;;;;18.10;49.30;;;;;;1560285;75;1128;-61
2023/11/28 07:15:21;;;;;;;;;;;18.20;49.40;;;;;;1538917;76;673;-61
2023/11/28 07:17:23;;;;;;;;;;;18.20;49.40;;;;;;1575532;75;663;-63
2023/11/28 07:19:25;;;;;;;;;;;18.20;49.40;;;;;;1564368;75;677;-61
2023/11/28 07:21:27;;;;;;;;;;;18.20;49.40;;;;;;1537546;76;1625;-61
2023/11/28 07:23:29;;;;;;;;;;;18.10;49.40;;;;;;1553015;75;1941;-62
2023/11/28 07:25:31;;;;;;;;;;;18.10;49.40;;;;;;1556217;75;737;-62
2023/11/28 07:27:33;;;;;;;;;;;18.10;49.40;;;;;;1550727;75;697;-60
2023/11/28 07:29:36;;;;;;;;;;;18.20;49.40;;;;;;1555370;75;747;-58
2023/11/28 07:31:37;;;;;;;;;;;18.10;49.40;;;;;;1557724;75;775;-59
2023/11/28 07:33:39;;;;;;;;;;;18.20;49.40;;;;;;1536253;75;1140;-59
2023/11/28 07:35:41;;;;;;;;;;;18.20;49.30;;;;;;1550525;75;1648;-60
2023/11/28 07:37:43;;;;;;;;;;;18.10;49.40;;;;;;1551474;75;729;-61
2023/11/28 07:39:45;;;;;;;;;;;18.10;49.40;;;;;;1550269;75;743;-61
2023/11/28 07:41:48;;;;;;;;;;;18.20;49.40;;;;;;1555680;75;728;-59
2023/11/28 07:43:50;;;;;;;;;;;18.10;49.40;;;;;;1554020;74;1927;-60
2023/11/28 07:45:52;;;;;;;;;;;18.10;49.40;;;;;;1548004;75;740;-61
2023/11/28 07:47:54;;;;;;;;;;;18.20;49.40;;;;;;1555457;75;760;-62
2023/11/28 07:49:56;;;;;;;;;;;18.20;49.30;;;;;;1560789;75;643;-61
2023/11/28 07:51:58;;;;;;;;;;;18.20;49.30;;;;;;1551617;75;722;-62
2023/11/28 07:54:00;;;;;;;;;;;18.20;49.40;;;;;;1530825;76;1113;-57
2023/11/28 07:56:07;;;;;;;;;;;18.10;49.40;;;;;;1561477;75;753;-57
2023/11/28 07:58:06;;;;;;;;;;;18.20;49.40;;;;;;1557172;75;1079;-60
2023/11/28 08:00:09;;;;;;;;;;;18.20;49.40;;;;;;1561771;75;751;-60
2023/11/28 08:02:11;;;;;;;;;;;18.10;49.40;;;;;;1552696;75;1552;-59
2023/11/28 08:04:14;;;;;;;;;;;18.10;49.40;;;;;;1558416;75;1928;-60
2023/11/28 08:06:18;;;;;;;;;;;18.10;49.30;;;;;;1550264;75;671;-60
2023/11/28 08:08:19;;;;;;;;;;;18.10;49.40;;;;;;1551224;75;1500;-59
2023/11/28 08:10:22;;;;;;;;;;;18.20;49.40;;;;;;1563960;75;707;-60
2023/11/28 08:12:24;;;;;;;;;;;18.10;49.40;;;;;;1538664;76;1162;-59
2023/11/28 08:14:26;;;;;;;;;;;18.10;49.40;;;;;;1535754;76;810;-60
2023/11/28 08:16:28;;;;;;;;;;;18.10;49.40;;;;;;1550513;75;1308;-60
2023/11/28 08:18:30;;;;;;;;;;;18.10;49.40;;;;;;1538580;76;788;-60
2023/11/28 08:20:32;;;;;;;;;;;18.20;49.40;;;;;;1556855;75;739;-59
2023/11/28 08:22:33;;;;;;;;;;;18.20;49.40;;;;;;1553867;75;1140;-59
2023/11/28 08:24:35;;;;;;;;;;;18.10;49.30;;;;;;1550868;75;1963;-62
2023/11/28 08:26:37;;;;;;;;;;;18.10;49.30;;;;;;1542273;76;701;-62
2023/11/28 08:28:39;;;;;;;;;;;18.10;49.30;;;;;;1560391;75;786;-61
2023/11/28 08:30:41;;;;;;;;;;;18.20;49.40;;;;;;1535633;76;1533;-61
2023/11/28 08:32:43;;;;;;;;;;;18.10;49.30;;;;;;1553787;75;1095;-61
2023/11/28 08:34:45;;;;;;;;;;;18.10;49.30;;;;;;1546386;75;612;-61
2023/11/28 08:36:47;;;;;;;;;;;18.10;49.30;;;;;;1554499;75;698;-62
2023/11/28 08:38:50;;;;;;;;;;;18.10;49.30;;;;;;1553520;75;688;-61
2023/11/28 08:40:52;;;;;;;;;;;18.10;49.30;;;;;;1560809;75;821;-61
2023/11/28 08:42:53;;;;;;;;;;;18.10;49.20;;;;;;1533306;76;1101;-61
2023/11/28 08:44:56;;;;;;;;;;;18.10;49.30;;;;;;1555685;75;1937;-61
2023/11/28 08:46:58;;;;;;;;;;;18.20;49.30;;;;;;1547325;76;792;-62
2023/11/28 08:49:00;;;;;;;;;;;18.20;49.40;;;;;;1539888;75;801;-62
2023/11/28 08:51:02;;;;;;;;;;;18.20;49.30;;;;;;1555488;75;722;-62
2023/11/28 08:53:04;;;;;;;;;;;18.20;49.30;;;;;;1547390;75;1176;-61
2023/11/28 08:55:07;;;;;;;;;;;18.10;49.30;;;;;;1548671;75;968;-62
2023/11/28 08:57:10;;;;;;;;;;;18.20;49.30;;;;;;1557731;75;734;-61
2023/11/28 08:59:12;;;;;;;;;;;18.20;49.30;;;;;;1542342;76;1623;-61
2023/11/28 09:01:14;;;;;;;;;;;18.20;49.30;;;;;;1555554;75;788;-61
2023/11/28 09:03:17;;;;;;;;;;;18.20;49.30;;;;;;1550709;74;1134;-61
2023/11/28 09:05:20;;;;;;;;;;;18.20;49.30;;;;;;1557581;75;1936;-61
2023/11/28 09:07:22;;;;;;;;;;;18.20;49.30;;;;;;1552198;75;775;-63
2023/11/28 09:09:24;;;;;;;;;;;18.20;49.30;;;;;;1559163;75;675;-61
2023/11/28 09:11:26;;;;;;;;;;;18.30;49.40;;;;;;1562263;75;791;-63
2023/11/28 09:13:28;;;;;;;;;;;18.30;49.40;;;;;;1553177;75;1630;-62
2023/11/28 09:15:30;;;;;;;;;;;18.20;49.30;;;;;;1548935;75;824;-61
2023/11/28 09:17:32;;;;;;;;;;;18.30;49.30;;;;;;1545320;76;722;-62
2023/11/28 09:19:35;;;;;;;;;;;18.20;49.20;;;;;;1557568;75;747;-61
2023/11/28 09:21:37;;;;;;;;;;;18.30;49.30;;;;;;1533298;76;777;-62
2023/11/28 09:23:40;;;;;;;;;;;18.30;49.30;;;;;;1551891;75;1958;-60
2023/11/28 09:25:42;;;;;;;;;;;18.20;49.20;;;;;;1553529;75;706;-61
2023/11/28 09:27:44;;;;;;;;;;;18.30;49.30;;;;;;1558046;75;1302;-61
2023/11/28 09:29:46;;;;;;;;;;;18.30;49.30;;;;;;1550805;75;757;-61
2023/11/28 09:31:48;;;;;;;;;;;18.20;49.20;;;;;;1538318;76;860;-61
2023/11/28 09:33:49;;;;;;;;;;;18.20;49.20;;;;;;1550965;75;1104;-61
2023/11/28 09:35:53;;;;;;;;;;;18.30;49.30;;;;;;1534057;76;665;-61
2023/11/28 09:37:55;;;;;;;;;;;18.30;49.30;;;;;;1539328;76;796;-62
2023/11/28 09:39:56;;;;;;;;;;;18.20;49.20;;;;;;1566748;75;661;-62
2023/11/28 09:41:59;;;;;;;;;;;18.20;49.20;;;;;;1543482;76;1564;-62
2023/11/28 09:44:01;;;;;;;;;;;18.30;49.30;;;;;;1545702;75;1909;-61
2023/11/28 09:46:03;;;;;;;;;;;18.20;49.20;;;;;;1549670;75;766;-62
2023/11/28 09:48:06;;;;;;;;;;;18.30;49.20;;;;;;1541337;76;812;-62
2023/11/28 09:50:16;;;;;;;;;;;18.30;49.30;;;;;;1558254;75;688;-61
2023/11/28 09:52:15;;;;;;;;;;;18.30;49.20;;;;;;1552819;75;1500;-61
2023/11/28 09:54:17;;;;;;;;;;;18.30;49.20;;;;;;1537790;76;732;-61
2023/11/28 09:56:19;;;;;;;;;;;18.30;49.20;;;;;;1555131;75;1206;-62
2023/11/28 09:58:21;;;;;;;;;;;18.30;49.30;;;;;;1553940;75;745;-61
2023/11/28 10:00:23;;;;;;;;;;;18.20;49.20;;;;;;1558730;75;666;-61
2023/11/28 10:02:28;;;;;;;;;;;18.30;49.30;;;;;;1541910;75;1105;-62
2023/11/28 10:04:30;;;;;;;;;;;18.30;49.20;;;;;;1546442;75;1912;-62
2023/11/28 10:06:32;;;;;;;;;;;18.20;49.10;;;;;;1548824;75;769;-62
2023/11/28 10:08:34;;;;;;;;;;;18.30;49.20;;;;;;1553141;75;1539;-61
2023/11/28 10:10:36;;;;;;;;;;;18.20;49.10;;;;;;1539026;76;1112;-61
2023/11/28 10:12:38;;;;;;;;;;;18.30;49.20;;;;;;1555835;75;1115;-62
2023/11/28 10:14:40;;;;;;;;;;;18.30;49.20;;;;;;1553140;75;774;-61
2023/11/28 10:16:42;;;;;;;;;;;18.30;49.20;;;;;;1560385;75;997;-61
2023/11/28 10:18:47;;;;;;;;;;;18.30;49.20;;;;;;1557263;75;690;-64
2023/11/28 10:20:49;;;;;;;;;;;18.30;49.20;;;;;;1556774;75;730;-61
2023/11/28 10:22:52;;;;;;;;;;;18.30;49.20;;;;;;1552955;75;1537;-62
2023/11/28 10:24:56;;;;;;;;;;;18.20;49.10;;;;;;1556531;75;1923;-60
2023/11/28 10:26:57;;;;;;;;;;;18.20;49.00;;;;;;1561743;75;1774;-59
2023/11/28 10:28:59;;;;;;;;;;;18.30;49.10;;;;;;1536587;76;760;-58
2023/11/28 10:31:01;;;;;;;;;;;18.20;49.00;;;;;;1542804;76;781;-60
2023/11/28 10:33:03;;;;;;;;;;;18.30;49.10;;;;;;1559306;74;1177;-59
2023/11/28 10:35:05;;;;;;;;;;;18.20;48.90;;;;;;1543085;76;636;-59
2023/11/28 10:37:07;;;;;;;;;;;18.30;49.10;;;;;;1564147;75;1551;-59
2023/11/28 10:39:10;;;;;;;;;;;18.20;49.00;;;;;;1531478;76;927;-59
2023/11/28 10:41:12;;;;;;;;;;;18.30;49.00;;;;;;1553575;75;747;-59
2023/11/28 10:43:14;;;;;;;;;;;18.20;48.90;;;;;;1540085;75;1124;-60
2023/11/28 10:45:16;;;;;;;;;;;18.20;48.90;;;;;;1565897;75;1927;-59
2023/11/28 10:47:18;;;;;;;;;;;18.10;48.90;;;;;;1538981;76;712;-59
2023/11/28 10:49:20;;;;;;;;;;;18.20;48.90;;;;;;1558558;75;658;-60
2023/11/28 10:51:23;;;;;;;;;;;18.20;49.00;;;;;;1554410;75;1540;-59
2023/11/28 10:53:25;;;;;;;;;;;18.30;49.00;;;;;;1553319;74;1173;-60
2023/11/28 10:55:27;;;;;;;;;;;18.20;48.90;;;;;;1560788;75;741;-57
2023/11/28 10:57:29;;;;;;;;;;;18.20;48.90;;;;;;1544909;76;799;-59
2023/11/28 10:59:33;;;;;;;;;;;18.20;48.90;;;;;;1554239;75;637;-59
2023/11/28 11:01:35;;;;;;;;;;;18.20;48.90;;;;;;1553569;75;1818;-59
2023/11/28 11:03:38;;;;;;;;;;;18.20;48.90;;;;;;1558880;74;1116;-59
2023/11/28 11:05:41;;;;;;;;;;;18.30;48.90;;;;;;1540661;76;1908;-58
2023/11/28 11:07:43;;;;;;;;;;;18.30;48.90;;;;;;1509528;78;804;-61
2023/11/28 11:09:47;;;;;;;;;;;18.30;48.90;;;;;;1521685;77;694;-59
2023/11/28 11:11:49;;;;;;;;;;;18.20;48.80;;;;;;1530834;77;671;-58
2023/11/28 11:13:52;;;;;;;;;;;18.20;48.90;;;;;;1549974;75;1119;-60
2023/11/28 11:16:05;;;;;;;;;;;18.20;48.80;;;;;;1551568;75;650;-59
2023/11/28 11:18:12;;;;;;;;;;;18.20;48.80;;;;;;1557064;75;1916;-59
2023/11/28 11:20:13;;;;;;;;;;;18.20;48.80;;;;;;1557903;75;1854;-59
2023/11/28 11:22:15;;;;;;;;;;;18.20;48.90;;;;;;1559416;74;1142;-59
2023/11/28 11:24:19;;;;;;;;;;;18.20;48.90;;;;;;1544988;75;1931;-60
2023/11/28 11:26:22;;;;;;;;;;;18.20;48.90;;;;;;1552637;75;808;-60
2023/11/28 11:28:24;;;;;;;;;;;18.20;48.90;;;;;;1540831;75;1473;-59
2023/11/28 11:30:33;;;;;;;;;;;18.20;48.90;;;;;;1538293;76;721;-59
2023/11/28 11:32:35;;;;;;;;;;;18.20;48.90;;;;;;1546005;75;1159;-60
2023/11/28 11:34:37;;;;;;;;;;;18.20;48.90;;;;;;1551183;75;1469;-59
2023/11/28 11:36:39;;;;;;;;;;;18.20;48.80;;;;;;1555769;75;850;-60
2023/11/28 11:38:41;;;;;;;;;;;18.20;48.80;;;;;;1557031;75;783;-59
2023/11/28 11:40:43;;;;;;;;;;;18.20;48.80;;;;;;1527848;76;711;-59
2023/11/28 11:42:45;;;;;;;;;;;18.30;48.90;;;;;;1551315;75;1151;-60
2023/11/28 11:44:53;;;;;;;;;;;18.10;48.80;;;;;;1554969;75;1940;-61
2023/11/28 11:46:55;;;;;;;;;;;18.20;48.80;;;;;;1546124;76;806;-59
2023/11/28 11:48:57;;;;;;;;;;;18.20;48.80;;;;;;1561484;75;1712;-59
2023/11/28 11:50:59;;;;;;;;;;;18.20;48.80;;;;;;1554501;75;861;-58
2023/11/28 11:53:01;;;;;;;;;;;18.20;48.80;;;;;;1563726;74;1154;-59
2023/11/28 11:55:12;;;;;;;;;;;18.10;48.80;;;;;;1567473;75;663;-59
2023/11/28 11:57:14;;;;;;;;;;;18.30;48.90;;;;;;1555872;75;2114;-60
2023/11/28 11:59:16;;;;;;;;;;;18.20;48.80;;;;;;1550440;75;751;-60
2023/11/28 12:01:17;;;;;;;;;;;18.20;48.80;;;;;;1549411;75;1347;-60
2023/11/28 12:03:22;;;;;;;;;;;18.20;48.70;;;;;;1554569;75;1139;-60
2023/11/28 12:05:24;;;;;;;;;;;18.20;48.80;;;;;;1557957;75;1927;-59
2023/11/28 12:07:25;;;;;;;;;;;18.20;48.80;;;;;;1562078;75;677;-59
2023/11/28 12:09:27;;;;;;;;;;;18.10;48.80;;;;;;1553770;75;723;-60